Flight Track Log - Related Links

Times and Time Zones

All times are in EDT time to prevent confusion due to time zone crossing. See the N5073J flight status page for this flight to view local times or setup timezone preferences in your user account.

Time Position Orientation Groundspeed Altitude Reporting Facility
EDT Latitude Longitude Course Direction KTS MPH feet Rate Location/Type
Thu 01:12:03 PM 38.1500 -77.7667 295° West 161 185 5,500  Level Potomac TRACON
Thu 01:13:09 PM 38.1333 -77.8333 252° West 159 183 6,200 619 Climbing Potomac TRACON
Thu 01:14:09 PM 38.1167 -77.8833 247° West 162 186 6,800 545 Climbing Potomac TRACON
Thu 01:15:10 PM 38.1000 -77.9333 247° West 165 190 7,300 446 Climbing Potomac TRACON
Thu 01:16:10 PM 38.0833 -77.9833 247° West 165 190 7,700 417 Climbing Potomac TRACON
Thu 01:17:05 PM 38.0667 -78.0333 247° West 161 185 8,100 365 Climbing Potomac TRACON
Thu 01:18:05 PM 38.0500 -78.0833 247° West 164 189 8,400 200 Climbing Potomac TRACON
Thu 01:19:00 PM 53.6853 7.9199 295° West  Level Estimated
Thu 01:19:05 PM 38.0333 -78.1333 247° West 168 193 8,500  Level Potomac TRACON
Thu 01:20:05 PM 38.0000 -78.1833 230° Southwest 172 198 8,500 50 Level Potomac TRACON
Thu 01:21:05 PM 37.9833 -78.2500 252° West 175 201 8,600  Climbing Potomac TRACON
Thu 01:22:00 PM 37.9667 -78.3000 247° West 177 204 8,500 -52 Descending Potomac TRACON
Thu 01:23:00 PM 37.9500 -78.3500 247° West 178 205 8,500 50 Level Potomac TRACON
Thu 01:24:00 PM 37.9333 -78.4000 247° West 177 204 8,600 53 Climbing Potomac TRACON
Thu 01:24:54 PM 37.9167 -78.4667 252° West 178 205 8,600 -53 Level Potomac TRACON
Thu 01:25:54 PM 37.9000 -78.5167 247° West 178 205 8,500 -50 Descending Potomac TRACON
Thu 01:26:54 PM 37.8667 -78.5667 230° Southwest 182 209 8,500  Level Potomac TRACON
Thu 01:27:54 PM 37.8500 -78.6333 252° West 179 206 8,500  Level Potomac TRACON
Thu 01:28:49 PM 37.8333 -78.6667 238° Southwest 177 204 8,500  Level Potomac TRACON
Thu 01:41:01 PM 37.5728 -79.3564 246° West 179 206 8,500  Level Washington Center
Thu 01:45:26 PM 37.4833 -79.6111 246° West 184 212 8,500 12 Level Washington Center
Thu 01:49:25 PM 37.4036 -79.8428 246° West 179 206 8,600  Climbing Washington Center
Thu 01:53:26 PM 37.3183 -80.0839 246° West 176 203 8,500 -14 Descending Washington Center
Thu 01:56:37 PM 37.2519 -80.2717 246° West 187 215 8,500 23 Level Washington Center
Thu 01:57:44 PM 37.2244 -80.3378 242° Southwest 186 214 8,600  Climbing Atlanta Center
Thu 01:58:00 PM 37.2115 -80.3897 246° West  Level FlightAware Approximate
Thu 01:58:44 PM 37.2075 -80.3958 250° West 200 230 8,500  Level Atlanta Center
Thu 01:59:44 PM 37.1883 -80.4567 248° West 200 230 8,500 50 Level Atlanta Center
Thu 02:00:44 PM 37.1669 -80.5122 244° Southwest 195 224 8,600  Climbing Atlanta Center
Thu 02:01:44 PM 37.1458 -80.5706 246° West 190 219 8,500 -50 Descending Atlanta Center
Thu 02:02:44 PM 37.1244 -80.6289 245° Southwest 190 219 8,500  Level Atlanta Center
Thu 02:03:44 PM 37.0989 -80.6844 240° Southwest 190 219 8,500 50 Level Atlanta Center
Thu 02:04:44 PM 37.0756 -80.7453 244° Southwest 190 219 8,600 50 Climbing Atlanta Center
Thu 02:05:44 PM 37.0542 -80.8036 245° Southwest 190 219 8,600  Level Atlanta Center
Thu 02:06:44 PM 37.0306 -80.8617 243° Southwest 190 219 8,600  Level Atlanta Center
Thu 02:07:44 PM 37.0111 -80.9169 246° West 185 213 8,600  Level Atlanta Center
Thu 02:08:44 PM 36.9897 -80.9775 246° West 185 213 8,600  Level Atlanta Center
Thu 02:09:44 PM 36.9703 -81.0356 247° West 185 213 8,600 -50 Level Atlanta Center
Thu 02:10:44 PM 36.9531 -81.0958 250° West 185 213 8,500 -100 Descending Atlanta Center
Thu 02:11:44 PM 36.9294 -81.1539 243° Southwest 185 213 8,400  Descending Atlanta Center
Thu 02:12:44 PM 36.9036 -81.2119 241° Southwest 190 219 8,500 50 Climbing Atlanta Center
Thu 02:13:44 PM 36.8778 -81.2675 240° Southwest 190 219 8,500  Level Atlanta Center
Thu 02:14:44 PM 36.8561 -81.3228 244° Southwest 190 219 8,500  Level Atlanta Center
Thu 02:15:44 PM 36.8303 -81.3806 241° Southwest 190 219 8,500  Level Atlanta Center
Thu 02:16:44 PM 36.8086 -81.4383 245° Southwest 190 219 8,500  Level Atlanta Center
Thu 02:17:44 PM 36.7847 -81.4961 243° Southwest 190 219 8,500  Level Atlanta Center
Thu 02:18:44 PM 36.7631 -81.5564 246° West 190 219 8,500 -50 Level Atlanta Center
Thu 02:19:44 PM 36.7392 -81.6142 243° Southwest 190 219 8,400 -50 Descending Atlanta Center
Thu 02:20:44 PM 36.7153 -81.6719 243° Southwest 195 224 8,400 50 Level Atlanta Center
Thu 02:21:44 PM 36.6936 -81.7319 246° West 195 224 8,500  Climbing Atlanta Center
Thu 02:22:44 PM 36.6694 -81.7897 242° Southwest 195 224 8,400 -50 Descending Atlanta Center
Thu 02:23:44 PM 36.6456 -81.8447 242° Southwest 190 219 8,400  Level Atlanta Center
Thu 02:24:44 PM 36.6236 -81.9022 245° Southwest 190 219 8,400 50 Level Atlanta Center
Thu 02:25:44 PM 36.5975 -81.9597 241° Southwest 190 219 8,500 50 Climbing Atlanta Center
Thu 02:26:44 PM 36.5756 -82.0172 245° Southwest 190 219 8,500  Level Atlanta Center

Login

Don't have an account? Register now (free) for customized features, flight alerts, and more!